createdAt,value
2023-04-23T00:00:11.061Z,952.5000
2023-04-23T00:00:22.148Z,952.5000
2023-04-23T00:00:33.199Z,952.5200
2023-04-23T00:00:44.297Z,952.5000
2023-04-23T00:00:55.496Z,952.5200
2023-04-23T00:01:06.814Z,952.5000
2023-04-23T00:01:17.924Z,952.5000
2023-04-23T00:01:29.097Z,952.5000
2023-04-23T00:01:40.149Z,952.5000
2023-04-23T00:01:51.201Z,952.5000
2023-04-23T00:02:02.390Z,952.5000
2023-04-23T00:02:13.633Z,952.4800
2023-04-23T00:02:24.911Z,952.4800
2023-04-23T00:02:36.096Z,952.5000
2023-04-23T00:02:47.363Z,952.5000
2023-04-23T00:02:58.871Z,952.5000
2023-04-23T00:03:10.269Z,952.5000
2023-04-23T00:03:21.846Z,952.5000
2023-04-23T00:03:33.423Z,952.4800
2023-04-23T00:03:45.017Z,952.4800
2023-04-23T00:03:56.549Z,952.4800
2023-04-23T00:04:08.053Z,952.4800
2023-04-23T00:04:19.583Z,952.5000
2023-04-23T00:04:31.098Z,952.5000
2023-04-23T00:04:42.714Z,952.5000
2023-04-23T00:04:54.506Z,952.5200
2023-04-23T00:05:05.833Z,952.5200
2023-04-23T00:05:17.059Z,952.5200
2023-04-23T00:05:28.233Z,952.5200
2023-04-23T00:05:39.288Z,952.5000
2023-04-23T00:05:50.366Z,952.5200
2023-04-23T00:06:01.410Z,952.5400
2023-04-23T00:06:12.625Z,952.5400
2023-04-23T00:06:23.833Z,952.5400
2023-04-23T00:06:35.018Z,952.5200
2023-04-23T00:06:46.077Z,952.5400
2023-04-23T00:06:57.115Z,952.5400
2023-04-23T00:07:08.300Z,952.5400
2023-04-23T00:07:19.527Z,952.5400
2023-04-23T00:07:30.690Z,952.5400
2023-04-23T00:07:41.740Z,952.5400
2023-04-23T00:07:52.787Z,952.5600
2023-04-23T00:08:03.987Z,952.5400
2023-04-23T00:08:15.195Z,952.5600
2023-04-23T00:08:26.395Z,952.5400
2023-04-23T00:08:37.578Z,952.5600
2023-04-23T00:08:48.812Z,952.5600
2023-04-23T00:09:00.001Z,952.5600
2023-04-23T00:09:11.200Z,952.5400
2023-04-23T00:09:22.391Z,952.5400
2023-04-23T00:09:33.591Z,952.5400
2023-04-23T00:09:44.786Z,952.5400
2023-04-23T00:09:55.979Z,952.5200
2023-04-23T00:10:07.182Z,952.5600
2023-04-23T00:10:18.433Z,952.5600
2023-04-23T00:10:29.574Z,952.5600
2023-04-23T00:10:40.788Z,952.5600
2023-04-23T00:10:51.843Z,952.5600
2023-04-23T00:11:02.973Z,952.5600
2023-04-23T00:11:14.054Z,952.5600
2023-04-23T00:11:25.284Z,952.5600
2023-04-23T00:11:36.456Z,952.5400
2023-04-23T00:11:47.663Z,952.5400
2023-04-23T00:11:58.874Z,952.5600
2023-04-23T00:12:10.072Z,952.5400
2023-04-23T00:12:21.320Z,952.5400
2023-04-23T00:12:32.463Z,952.5600
2023-04-23T00:12:43.674Z,952.5600
2023-04-23T00:12:54.722Z,952.5800
2023-04-23T00:13:05.757Z,952.5800
2023-04-23T00:13:16.946Z,952.5800
2023-04-23T00:13:28.152Z,952.5800
2023-04-23T00:13:39.350Z,952.5800
2023-04-23T00:13:50.603Z,952.6000
2023-04-23T00:14:01.618Z,952.5800
2023-04-23T00:14:12.706Z,952.5800
2023-04-23T00:14:23.718Z,952.5800
2023-04-23T00:14:34.810Z,952.5800
2023-04-23T00:14:45.906Z,952.6000
2023-04-23T00:14:57.096Z,952.6000
2023-04-23T00:15:08.164Z,952.6200
2023-04-23T00:15:19.215Z,952.6000
2023-04-23T00:15:30.383Z,952.6200
2023-04-23T00:15:41.576Z,952.6000
2023-04-23T00:15:52.845Z,952.6200
2023-04-23T00:16:03.998Z,952.6400
2023-04-23T00:16:15.057Z,952.6400
2023-04-23T00:16:26.162Z,952.6400
2023-04-23T00:16:37.316Z,952.6400
2023-04-23T00:16:48.471Z,952.6400
2023-04-23T00:16:59.664Z,952.6400
2023-04-23T00:17:10.869Z,952.6400
2023-04-23T00:17:21.915Z,952.6400
2023-04-23T00:17:32.950Z,952.6600
2023-04-23T00:17:44.182Z,952.6400
2023-04-23T00:17:55.382Z,952.6400
2023-04-23T00:18:06.539Z,952.6600
2023-04-23T00:18:17.754Z,952.6600
2023-04-23T00:18:28.935Z,952.6600
2023-04-23T00:18:40.153Z,952.6400
2023-04-23T00:18:51.336Z,952.6400
2023-04-23T00:19:02.548Z,952.6600
2023-04-23T00:19:13.746Z,952.6400
2023-04-23T00:19:24.757Z,952.6400
2023-04-23T00:19:35.794Z,952.6400
2023-04-23T00:19:46.828Z,952.6400
2023-04-23T00:19:57.894Z,952.6400
2023-04-23T00:20:09.105Z,952.6400
2023-04-23T00:20:20.343Z,952.6400
2023-04-23T00:20:31.407Z,952.6400
2023-04-23T00:20:42.463Z,952.6200
2023-04-23T00:20:53.574Z,952.6200
2023-04-23T00:21:04.797Z,952.6200
2023-04-23T00:21:15.976Z,952.6400
2023-04-23T00:21:27.185Z,952.6400
2023-04-23T00:21:38.222Z,952.6600
2023-04-23T00:21:49.302Z,952.6400
2023-04-23T00:22:00.480Z,952.6400
2023-04-23T00:22:11.660Z,952.6400
2023-04-23T00:22:22.884Z,952.6400
2023-04-23T00:22:34.072Z,952.6600
2023-04-23T00:22:45.269Z,952.6400
2023-04-23T00:22:56.463Z,952.6400
2023-04-23T00:23:07.533Z,952.6600
2023-04-23T00:23:18.548Z,952.6600
2023-04-23T00:23:29.753Z,952.6400
2023-04-23T00:23:40.946Z,952.6400
2023-04-23T00:23:52.137Z,952.6600
2023-04-23T00:24:03.366Z,952.6600
2023-04-23T00:24:14.394Z,952.6600
2023-04-23T00:24:25.432Z,952.6600
2023-04-23T00:24:36.630Z,952.6600
2023-04-23T00:24:47.648Z,952.6600
2023-04-23T00:24:58.706Z,952.6600
2023-04-23T00:25:09.895Z,952.6800
2023-04-23T00:25:21.124Z,952.6800
2023-04-23T00:25:32.306Z,952.7000
2023-04-23T00:25:43.333Z,952.7000
2023-04-23T00:25:54.385Z,952.7000
2023-04-23T00:26:05.605Z,952.7000
2023-04-23T00:26:16.790Z,952.7000
2023-04-23T00:26:27.982Z,952.7000
2023-04-23T00:26:39.200Z,952.6800
2023-04-23T00:26:50.391Z,952.7400
2023-04-23T00:27:01.585Z,952.7400
2023-04-23T00:27:12.652Z,952.7200
2023-04-23T00:27:23.701Z,952.7200
2023-04-23T00:27:34.905Z,952.7200
2023-04-23T00:27:46.058Z,952.7200
2023-04-23T00:27:57.105Z,952.7200
2023-04-23T00:28:08.190Z,952.7400
2023-04-23T00:28:21.566Z,952.7400
2023-04-23T00:28:33.434Z,952.7400
2023-04-23T00:28:44.652Z,952.7600
2023-04-23T00:28:55.840Z,952.7600
2023-04-23T00:29:06.886Z,952.7800
2023-04-23T00:29:17.910Z,952.7800
2023-04-23T00:29:29.100Z,952.8000
2023-04-23T00:29:40.333Z,952.8000
2023-04-23T00:29:51.512Z,952.7800
2023-04-23T00:30:02.719Z,952.7800
2023-04-23T00:30:13.898Z,952.8000
2023-04-23T00:30:25.153Z,952.8000
2023-04-23T00:30:36.301Z,952.8200
2023-04-23T00:30:47.522Z,952.8200
2023-04-23T00:30:58.697Z,952.8200
2023-04-23T00:31:09.928Z,952.8200
2023-04-23T00:31:21.132Z,952.8000
2023-04-23T00:31:32.199Z,952.8200
2023-04-23T00:31:43.536Z,952.8000
2023-04-23T00:31:54.756Z,952.8000
2023-04-23T00:32:05.924Z,952.8000
2023-04-23T00:32:16.954Z,952.8200
2023-04-23T00:32:28.025Z,952.8000
2023-04-23T00:32:39.131Z,952.8200
2023-04-23T00:32:50.174Z,952.8000
2023-04-23T00:33:01.325Z,952.8200
2023-04-23T00:33:12.482Z,952.8200
2023-04-23T00:33:23.661Z,952.8400
2023-04-23T00:33:34.876Z,952.8400
2023-04-23T00:33:45.896Z,952.8400
2023-04-23T00:33:56.959Z,952.8400
2023-04-23T00:34:08.025Z,952.8400
2023-04-23T00:34:19.086Z,952.8400
2023-04-23T00:34:30.245Z,952.8400
2023-04-23T00:34:41.585Z,952.8200
2023-04-23T00:34:52.892Z,952.8400
2023-04-23T00:35:03.934Z,952.8400
2023-04-23T00:35:15.035Z,952.8400
2023-04-23T00:35:26.251Z,952.8400
2023-04-23T00:35:37.434Z,952.8400
2023-04-23T00:35:48.655Z,952.8600
2023-04-23T00:35:59.818Z,952.8400
2023-04-23T00:36:10.943Z,952.8400
2023-04-23T00:36:22.003Z,952.8600
2023-04-23T00:36:33.108Z,952.8600
2023-04-23T00:36:44.320Z,952.8600
2023-04-23T00:36:55.524Z,952.8400
2023-04-23T00:37:06.546Z,952.8400
2023-04-23T00:37:17.580Z,952.8600
2023-04-23T00:37:28.814Z,952.8600
2023-04-23T00:37:39.995Z,952.8400
2023-04-23T00:37:51.200Z,952.8400
2023-04-23T00:38:02.367Z,952.8600
2023-04-23T00:38:13.490Z,952.8600
2023-04-23T00:38:24.553Z,952.8800
2023-04-23T00:38:35.683Z,952.8800
2023-04-23T00:38:46.870Z,952.8600
2023-04-23T00:38:57.908Z,952.8600
2023-04-23T00:39:08.942Z,952.8600
2023-04-23T00:39:20.146Z,952.8600
2023-04-23T00:39:31.353Z,952.8600
2023-04-23T00:39:42.540Z,952.8600
2023-04-23T00:39:53.745Z,952.8400
2023-04-23T00:40:04.966Z,952.8400
2023-04-23T00:40:15.992Z,952.8400
2023-04-23T00:40:27.042Z,952.8400
2023-04-23T00:40:38.265Z,952.8400
2023-04-23T00:40:49.418Z,952.8400
2023-04-23T00:41:00.610Z,952.8400
2023-04-23T00:41:11.826Z,952.8400
2023-04-23T00:41:23.037Z,952.8200
2023-04-23T00:41:34.218Z,952.8200
2023-04-23T00:41:45.435Z,952.8400
2023-04-23T00:41:56.630Z,952.8400
2023-04-23T00:42:07.812Z,952.8200
2023-04-23T00:42:18.857Z,952.8400
2023-04-23T00:42:29.892Z,952.8600
2023-04-23T00:42:41.120Z,952.8600
2023-04-23T00:42:52.317Z,952.8600
2023-04-23T00:43:03.499Z,952.8600
2023-04-23T00:43:14.703Z,952.8400
2023-04-23T00:43:25.761Z,952.8400
2023-04-23T00:43:36.793Z,952.8600
2023-04-23T00:43:47.819Z,952.8400
2023-04-23T00:43:58.855Z,952.8400
2023-04-23T00:44:10.065Z,952.8600
2023-04-23T00:44:21.139Z,952.8600
2023-04-23T00:44:32.193Z,952.8600
2023-04-23T00:44:43.615Z,952.8600
2023-04-23T00:44:54.879Z,952.8600
2023-04-23T00:45:06.064Z,952.8800
2023-04-23T00:45:17.348Z,952.8800
2023-04-23T00:45:28.580Z,952.8800
2023-04-23T00:45:39.773Z,952.8800
2023-04-23T00:45:50.926Z,952.8800
2023-04-23T00:46:02.098Z,952.8800
2023-04-23T00:46:13.298Z,952.8600
2023-04-23T00:46:24.542Z,952.8600
2023-04-23T00:46:35.604Z,952.8800
2023-04-23T00:46:46.660Z,952.8800
2023-04-23T00:46:57.748Z,952.9000
2023-04-23T00:47:08.938Z,952.9000
2023-04-23T00:47:20.172Z,952.9000
2023-04-23T00:47:31.380Z,952.9200
2023-04-23T00:47:42.455Z,952.9200
2023-04-23T00:47:53.567Z,952.9200
2023-04-23T00:48:04.626Z,952.9200
2023-04-23T00:48:15.819Z,952.8800
2023-04-23T00:48:26.858Z,952.9000
2023-04-23T00:48:37.904Z,952.9000
2023-04-23T00:48:48.967Z,952.9000
2023-04-23T00:48:59.998Z,952.9000
2023-04-23T00:49:11.176Z,952.9000
2023-04-23T00:49:22.394Z,952.9000
2023-04-23T00:49:33.578Z,952.9200
2023-04-23T00:49:44.778Z,952.9200
2023-04-23T00:49:55.810Z,952.9000
2023-04-23T00:50:06.861Z,952.9000
2023-04-23T00:50:18.057Z,952.8800
2023-04-23T00:50:29.273Z,952.9000
2023-04-23T00:50:40.529Z,952.9000
2023-04-23T00:50:51.674Z,952.9000
2023-04-23T00:51:02.707Z,952.9000
2023-04-23T00:51:13.753Z,952.9000
2023-04-23T00:51:24.953Z,952.9000
2023-04-23T00:51:36.132Z,952.9000
2023-04-23T00:51:47.361Z,952.9200
2023-04-23T00:51:58.553Z,952.9200
2023-04-23T00:52:09.739Z,952.9200
2023-04-23T00:52:20.938Z,952.9000
2023-04-23T00:52:32.150Z,952.9200
2023-04-23T00:52:43.358Z,952.9000
2023-04-23T00:52:54.572Z,952.9200
2023-04-23T00:53:05.615Z,952.9200
2023-04-23T00:53:16.696Z,952.9200
2023-04-23T00:53:27.815Z,952.9300
2023-04-23T00:53:39.021Z,952.9300
2023-04-23T00:53:50.244Z,952.9200
2023-04-23T00:54:01.422Z,952.9200
2023-04-23T00:54:12.629Z,952.9200
2023-04-23T00:54:23.822Z,952.9200
2023-04-23T00:54:34.892Z,952.9200
2023-04-23T00:54:45.958Z,952.9200
2023-04-23T00:54:57.130Z,952.9200
2023-04-23T00:55:08.326Z,952.9300
2023-04-23T00:55:19.348Z,952.9200
2023-04-23T00:55:30.418Z,952.9300
2023-04-23T00:55:41.612Z,952.9300
2023-04-23T00:55:52.808Z,952.9500
2023-04-23T00:56:03.979Z,952.9500
2023-04-23T00:56:15.215Z,952.9500
2023-04-23T00:56:26.388Z,952.9500
2023-04-23T00:56:37.577Z,952.9300
2023-04-23T00:56:48.791Z,952.9300
2023-04-23T00:56:59.980Z,952.9300
2023-04-23T00:57:11.176Z,952.9300
2023-04-23T00:57:22.207Z,952.9300
2023-04-23T00:57:33.264Z,952.9200
2023-04-23T00:57:44.462Z,952.9300
2023-04-23T00:57:55.659Z,952.9300
2023-04-23T00:58:07.135Z,952.9200
2023-04-23T00:58:20.236Z,952.9200
2023-04-23T00:58:36.955Z,952.9200
2023-04-23T00:58:52.821Z,952.9300
2023-04-23T00:59:09.013Z,952.9300
2023-04-23T00:59:20.463Z,952.9300
2023-04-23T00:59:31.657Z,952.9300
2023-04-23T00:59:42.852Z,952.9200
2023-04-23T00:59:54.060Z,952.9300
2023-04-23T01:00:05.256Z,952.9200
2023-04-23T01:00:16.315Z,952.9200
2023-04-23T01:00:27.380Z,952.9200
2023-04-23T01:00:38.550Z,952.9200
2023-04-23T01:00:49.764Z,952.9200
2023-04-23T01:01:00.955Z,952.9300
2023-04-23T01:01:12.170Z,952.9300
2023-04-23T01:01:23.304Z,952.9200
2023-04-23T01:01:34.405Z,952.9300
2023-04-23T01:01:45.467Z,952.9300
2023-04-23T01:01:56.683Z,952.9300
2023-04-23T01:02:07.968Z,952.9200
2023-04-23T01:02:19.157Z,952.9200
2023-04-23T01:02:30.607Z,952.9200
2023-04-23T01:02:41.920Z,952.9300
2023-04-23T01:02:53.433Z,952.9300
2023-04-23T01:03:04.873Z,952.9500
2023-04-23T01:03:16.091Z,952.9500
2023-04-23T01:03:27.371Z,952.9500
2023-04-23T01:03:38.840Z,952.9500
2023-04-23T01:03:50.184Z,952.9500
2023-04-23T01:04:01.965Z,952.9500
2023-04-23T01:04:14.041Z,952.9500
2023-04-23T01:04:31.220Z,952.9900
2023-04-23T01:04:43.766Z,952.9700
2023-04-23T01:04:54.874Z,952.9700
2023-04-23T01:05:06.084Z,952.9700
2023-04-23T01:05:17.274Z,952.9700
2023-04-23T01:05:28.456Z,952.9500
2023-04-23T01:05:39.513Z,952.9500
2023-04-23T01:05:50.580Z,952.9500
2023-04-23T01:06:01.742Z,952.9500
2023-04-23T01:06:12.980Z,952.9500
2023-04-23T01:06:24.159Z,952.9500
2023-04-23T01:06:35.222Z,952.9500
2023-04-23T01:06:46.281Z,952.9500
2023-04-23T01:06:57.455Z,952.9700
2023-04-23T01:07:08.748Z,952.9500
2023-04-23T01:07:19.842Z,952.9500
2023-04-23T01:07:31.032Z,952.9700
2023-04-23T01:07:42.244Z,952.9700
2023-04-23T01:07:53.421Z,952.9700
2023-04-23T01:08:04.621Z,952.9500
2023-04-23T01:08:15.830Z,952.9700
2023-04-23T01:08:27.024Z,952.9900
2023-04-23T01:08:38.102Z,952.9900
2023-04-23T01:08:49.177Z,952.9900
2023-04-23T01:09:00.297Z,952.9900
2023-04-23T01:09:11.334Z,952.9900
2023-04-23T01:09:22.438Z,952.9700
2023-04-23T01:09:33.599Z,952.9700
2023-04-23T01:09:44.797Z,952.9700
2023-04-23T01:09:55.858Z,952.9700
2023-04-23T01:10:06.931Z,952.9700
2023-04-23T01:10:18.080Z,952.9700
2023-04-23T01:10:29.269Z,952.9900
2023-04-23T01:10:40.459Z,952.9500
2023-04-23T01:10:51.667Z,952.9500
2023-04-23T01:11:02.865Z,952.9500
2023-04-23T01:11:14.130Z,952.9500
2023-04-23T01:11:25.271Z,952.9500
2023-04-23T01:11:36.462Z,952.9500
2023-04-23T01:11:47.658Z,952.9700
2023-04-23T01:11:58.722Z,952.9500
2023-04-23T01:12:09.743Z,952.9500
2023-04-23T01:12:20.952Z,952.9500
2023-04-23T01:12:32.159Z,952.9500
2023-04-23T01:12:43.346Z,952.9700
2023-04-23T01:12:54.531Z,952.9700
2023-04-23T01:13:05.750Z,952.9700
2023-04-23T01:13:16.966Z,952.9500
2023-04-23T01:13:28.149Z,952.9500
2023-04-23T01:13:39.355Z,952.9300
2023-04-23T01:13:50.556Z,952.9300
2023-04-23T01:14:01.608Z,952.9300
2023-04-23T01:14:12.678Z,952.9300
2023-04-23T01:14:23.828Z,952.9500
2023-04-23T01:14:35.028Z,952.9500
2023-04-23T01:14:46.071Z,952.9500
2023-04-23T01:14:57.097Z,952.9700
2023-04-23T01:15:08.138Z,952.9700
2023-04-23T01:15:19.197Z,952.9700
2023-04-23T01:15:30.395Z,952.9700
2023-04-23T01:15:41.647Z,952.9700
2023-04-23T01:15:52.777Z,952.9700
2023-04-23T01:16:03.857Z,952.9500
2023-04-23T01:16:14.971Z,952.9700
2023-04-23T01:16:26.103Z,952.9700
2023-04-23T01:16:37.329Z,952.9500
2023-04-23T01:16:48.517Z,952.9700
2023-04-23T01:16:59.705Z,952.9500
2023-04-23T01:17:10.857Z,952.9700
2023-04-23T01:17:22.094Z,952.9700
2023-04-23T01:17:33.318Z,952.9700
2023-04-23T01:17:44.504Z,952.9700
2023-04-23T01:17:55.710Z,952.9700
2023-04-23T01:18:06.861Z,952.9700
2023-04-23T01:18:17.908Z,952.9700
2023-04-23T01:18:28.938Z,952.9700
2023-04-23T01:18:39.983Z,952.9700
2023-04-23T01:18:51.272Z,952.9700
2023-04-23T01:19:02.552Z,952.9700
2023-04-23T01:19:13.748Z,952.9500
2023-04-23T01:19:24.963Z,952.9700
2023-04-23T01:19:36.152Z,952.9700
2023-04-23T01:19:47.352Z,952.9700
2023-04-23T01:19:58.546Z,952.9700
2023-04-23T01:20:09.621Z,952.9700
2023-04-23T01:20:20.646Z,952.9500
2023-04-23T01:20:31.822Z,952.9500
2023-04-23T01:20:42.828Z,952.9500
2023-04-23T01:20:53.869Z,952.9700
2023-04-23T01:21:04.943Z,952.9900
2023-04-23T01:21:16.017Z,952.9700
2023-04-23T01:21:27.184Z,952.9700
2023-04-23T01:21:38.379Z,952.9900
2023-04-23T01:21:49.589Z,952.9900
2023-04-23T01:22:00.799Z,952.9900
2023-04-23T01:22:12.042Z,952.9900
2023-04-23T01:22:23.183Z,952.9900
2023-04-23T01:22:34.381Z,952.9900
2023-04-23T01:22:45.589Z,952.9900
2023-04-23T01:22:56.795Z,952.9900
2023-04-23T01:23:08.007Z,952.9900
2023-04-23T01:23:19.199Z,952.9900
2023-04-23T01:23:30.237Z,953.0100
2023-04-23T01:23:41.307Z,952.9900
2023-04-23T01:23:52.459Z,953.0100
2023-04-23T01:24:03.675Z,953.0100
2023-04-23T01:24:14.886Z,953.0300
2023-04-23T01:24:26.058Z,953.0300
2023-04-23T01:24:37.279Z,953.0100
2023-04-23T01:24:48.469Z,952.9900
2023-04-23T01:24:59.662Z,953.0100
2023-04-23T01:25:10.876Z,952.9900
2023-04-23T01:25:22.070Z,952.9900
2023-04-23T01:25:33.171Z,952.9900
2023-04-23T01:25:44.208Z,953.0100
2023-04-23T01:25:55.373Z,952.9900
2023-04-23T01:26:06.542Z,953.0100
2023-04-23T01:26:17.789Z,953.0100
2023-04-23T01:26:28.962Z,952.9900
2023-04-23T01:26:40.032Z,952.9900
2023-04-23T01:26:51.080Z,953.0100
2023-04-23T01:27:02.241Z,952.9900
2023-04-23T01:27:13.428Z,952.9900
2023-04-23T01:27:24.616Z,952.9700
2023-04-23T01:27:35.860Z,953.0100
2023-04-23T01:27:46.849Z,952.9900
2023-04-23T01:27:57.917Z,952.9900
2023-04-23T01:28:09.135Z,952.9900
2023-04-23T01:28:20.227Z,952.9900
2023-04-23T01:28:31.278Z,952.9700
2023-04-23T01:28:42.389Z,952.9900
2023-04-23T01:28:53.429Z,952.9900
2023-04-23T01:29:04.462Z,952.9900
2023-04-23T01:29:15.675Z,952.9900
2023-04-23T01:29:26.711Z,952.9900
2023-04-23T01:29:37.743Z,952.9900
2023-04-23T01:29:48.807Z,952.9900
2023-04-23T01:29:59.819Z,952.9900
2023-04-23T01:30:11.025Z,953.0100
2023-04-23T01:30:22.108Z,952.9900
2023-04-23T01:30:33.178Z,952.9900
2023-04-23T01:30:44.359Z,952.9900
2023-04-23T01:30:55.550Z,952.9900
2023-04-23T01:31:06.611Z,952.9900
2023-04-23T01:31:17.754Z,952.9900
2023-04-23T01:31:28.871Z,952.9900
2023-04-23T01:31:39.887Z,952.9900
2023-04-23T01:31:50.930Z,952.9900
2023-04-23T01:32:02.073Z,952.9900
2023-04-23T01:32:13.268Z,952.9900
2023-04-23T01:32:24.367Z,952.9900
2023-04-23T01:32:35.481Z,953.0100
2023-04-23T01:32:46.574Z,953.0100
2023-04-23T01:32:57.809Z,953.0100
2023-04-23T01:33:08.964Z,953.0300
2023-04-23T01:33:19.987Z,953.0100
2023-04-23T01:33:31.041Z,953.0100
2023-04-23T01:33:42.235Z,953.0300
2023-04-23T01:33:53.280Z,953.0100
2023-04-23T01:34:04.337Z,953.0100
2023-04-23T01:34:15.570Z,953.0100
2023-04-23T01:34:26.601Z,953.0300
2023-04-23T01:34:37.655Z,953.0300
2023-04-23T01:34:48.801Z,953.0300
2023-04-23T01:35:00.043Z,953.0100
2023-04-23T01:35:11.189Z,953.0300
2023-04-23T01:35:22.393Z,953.0100
2023-04-23T01:35:33.581Z,953.0100
2023-04-23T01:35:44.795Z,953.0100
2023-04-23T01:35:55.837Z,953.0300
2023-04-23T01:36:06.869Z,953.0100
2023-04-23T01:36:18.069Z,953.0500
2023-04-23T01:36:29.306Z,953.0500
2023-04-23T01:36:40.343Z,953.0500
2023-04-23T01:36:51.397Z,953.0500
2023-04-23T01:37:02.605Z,953.0500
2023-04-23T01:37:13.748Z,953.0500
2023-04-23T01:37:24.957Z,953.0300
2023-04-23T01:37:36.148Z,953.0500
2023-04-23T01:37:47.179Z,953.0500
2023-04-23T01:37:58.251Z,953.0500
2023-04-23T01:38:09.317Z,953.0500
2023-04-23T01:38:20.358Z,953.0500
2023-04-23T01:38:31.504Z,953.0500
2023-04-23T01:38:42.697Z,953.0300
2023-04-23T01:38:53.755Z,953.0300
2023-04-23T01:39:04.829Z,953.0300
2023-04-23T01:39:15.994Z,953.0300
2023-04-23T01:39:27.198Z,953.0300
2023-04-23T01:39:38.390Z,953.0100
2023-04-23T01:39:49.437Z,953.0300
2023-04-23T01:40:00.481Z,953.0100
2023-04-23T01:40:11.672Z,953.0300
2023-04-23T01:40:22.865Z,953.0300
2023-04-23T01:40:34.059Z,953.0500
2023-04-23T01:40:45.261Z,953.0100
2023-04-23T01:40:56.799Z,953.0100
2023-04-23T01:41:08.079Z,953.0500
2023-04-23T01:41:19.194Z,953.0300
2023-04-23T01:41:30.416Z,953.0300
2023-04-23T01:41:41.585Z,953.0100
2023-04-23T01:41:52.788Z,953.0300
2023-04-23T01:42:03.990Z,953.0100
2023-04-23T01:42:15.181Z,953.0300
2023-04-23T01:42:26.390Z,953.0300
2023-04-23T01:42:37.586Z,953.0300
2023-04-23T01:42:48.785Z,953.0300
2023-04-23T01:42:59.856Z,953.0100
2023-04-23T01:43:10.904Z,953.0100
2023-04-23T01:43:22.065Z,953.0100
2023-04-23T01:43:33.259Z,953.0100
2023-04-23T01:43:44.469Z,953.0300
2023-04-23T01:43:55.666Z,953.0300
2023-04-23T01:44:06.716Z,953.0300
2023-04-23T01:44:17.758Z,953.0100
2023-04-23T01:44:28.959Z,953.0300
2023-04-23T01:44:40.410Z,953.0300
2023-04-23T01:44:51.676Z,953.0300
2023-04-23T01:45:02.869Z,953.0100
2023-04-23T01:45:14.076Z,953.0100
2023-04-23T01:45:25.274Z,953.0100
2023-04-23T01:45:36.479Z,953.0100
2023-04-23T01:45:47.717Z,952.9900
2023-04-23T01:45:58.887Z,952.9900
2023-04-23T01:46:09.949Z,952.9900
2023-04-23T01:46:21.030Z,953.0100
2023-04-23T01:46:32.233Z,952.9900
2023-04-23T01:46:43.391Z,953.0100
2023-04-23T01:46:54.548Z,953.0100
2023-04-23T01:47:07.250Z,952.9900
2023-04-23T01:47:18.670Z,953.0100
2023-04-23T01:47:29.745Z,953.0100
2023-04-23T01:47:40.975Z,952.9900
2023-04-23T01:47:52.177Z,953.0300
2023-04-23T01:48:03.442Z,953.0100
2023-04-23T01:48:14.539Z,953.0300
2023-04-23T01:48:25.740Z,953.0100
2023-04-23T01:48:36.937Z,953.0100
2023-04-23T01:48:48.146Z,953.0100
2023-04-23T01:48:59.218Z,952.9900
2023-04-23T01:49:10.282Z,952.9900
2023-04-23T01:49:21.464Z,952.9900
2023-04-23T01:49:32.623Z,952.9900
2023-04-23T01:49:43.830Z,952.9900
2023-04-23T01:49:55.022Z,952.9900
2023-04-23T01:50:06.220Z,952.9900
2023-04-23T01:50:17.499Z,952.9900
2023-04-23T01:50:28.618Z,952.9900
2023-04-23T01:50:39.848Z,953.0100
2023-04-23T01:50:51.056Z,953.0100
2023-04-23T01:51:02.130Z,952.9900
2023-04-23T01:51:13.260Z,952.9900
2023-04-23T01:51:24.294Z,952.9900
2023-04-23T01:51:35.579Z,953.0100
2023-04-23T01:51:46.701Z,952.9900
2023-04-23T01:51:57.794Z,953.0100
2023-04-23T01:52:08.844Z,952.9900
2023-04-23T01:52:20.016Z,952.9900
2023-04-23T01:52:31.209Z,953.0100
2023-04-23T01:52:42.406Z,952.9900
2023-04-23T01:52:53.526Z,952.9900
2023-04-23T01:53:04.580Z,952.9900
2023-04-23T01:53:15.618Z,952.9700
2023-04-23T01:53:26.699Z,952.9500
2023-04-23T01:53:37.770Z,953.0100
2023-04-23T01:53:48.960Z,953.0100
2023-04-23T01:54:00.140Z,952.9500
2023-04-23T01:54:11.343Z,952.9500
2023-04-23T01:54:22.435Z,952.9300
2023-04-23T01:54:33.494Z,952.9300
2023-04-23T01:54:44.624Z,952.9300
2023-04-23T01:54:55.786Z,952.9300
2023-04-23T01:55:06.835Z,952.9300
2023-04-23T01:55:17.906Z,952.9300
2023-04-23T01:55:28.949Z,952.9200
2023-04-23T01:55:40.015Z,952.9300
2023-04-23T01:55:51.186Z,952.9200
2023-04-23T01:56:02.381Z,952.9300
2023-04-23T01:56:13.492Z,952.9300
2023-04-23T01:56:24.536Z,952.9500
2023-04-23T01:56:35.777Z,952.9300
2023-04-23T01:56:46.869Z,952.9300
2023-04-23T01:56:57.937Z,952.9500
2023-04-23T01:57:09.018Z,952.9700
2023-04-23T01:57:20.161Z,952.9700
2023-04-23T01:57:31.361Z,952.9700
2023-04-23T01:57:42.391Z,952.9700
2023-04-23T01:57:53.425Z,952.9500
2023-04-23T01:58:04.623Z,952.9500
2023-04-23T01:58:15.827Z,952.9500
2023-04-23T01:58:27.020Z,952.9500
2023-04-23T01:58:38.218Z,952.9500
2023-04-23T01:58:49.269Z,952.9500
2023-04-23T01:59:00.324Z,952.9300
2023-04-23T01:59:11.501Z,952.9300
2023-04-23T01:59:22.713Z,952.9300
2023-04-23T01:59:33.915Z,952.9200
2023-04-23T01:59:45.096Z,952.9000
2023-04-23T01:59:56.310Z,952.9200
2023-04-23T02:00:07.565Z,952.9200
2023-04-23T02:00:18.712Z,952.9200
2023-04-23T02:00:29.904Z,952.9200
2023-04-23T02:00:41.107Z,952.9000
2023-04-23T02:00:52.166Z,952.9200
2023-04-23T02:01:03.194Z,952.9200
2023-04-23T02:01:14.409Z,952.9200
2023-04-23T02:01:25.618Z,952.9300
2023-04-23T02:01:36.865Z,952.9300
2023-04-23T02:01:48.008Z,952.9300
2023-04-23T02:01:59.108Z,952.9500
2023-04-23T02:02:10.412Z,952.9500
2023-04-23T02:02:21.636Z,952.9500
2023-04-23T02:02:32.877Z,952.9700
2023-04-23T02:02:44.154Z,952.9500
2023-04-23T02:02:55.607Z,952.9500
2023-04-23T02:03:06.916Z,952.9500
2023-04-23T02:03:18.326Z,952.9700
2023-04-23T02:03:29.707Z,952.9700
2023-04-23T02:03:41.136Z,952.9700
2023-04-23T02:03:52.371Z,952.9700
2023-04-23T02:04:03.737Z,952.9700
2023-04-23T02:04:15.016Z,952.9700
2023-04-23T02:04:26.249Z,952.9700
2023-04-23T02:04:37.472Z,952.9900
2023-04-23T02:04:48.786Z,952.9900
2023-04-23T02:05:00.015Z,953.0100
2023-04-23T02:05:11.182Z,953.0100
2023-04-23T02:05:22.209Z,953.0300
2023-04-23T02:05:33.257Z,953.0300
2023-04-23T02:05:44.465Z,953.0500
2023-04-23T02:05:55.535Z,953.0500
2023-04-23T02:06:06.591Z,953.0500
2023-04-23T02:06:17.670Z,953.1100
2023-04-23T02:06:28.731Z,953.1100
2023-04-23T02:06:39.850Z,953.1300
2023-04-23T02:06:51.050Z,953.0700
2023-04-23T02:07:02.067Z,953.0700
2023-04-23T02:07:13.150Z,953.0700
2023-04-23T02:07:24.194Z,953.0900
2023-04-23T02:07:35.278Z,953.0700
2023-04-23T02:07:46.294Z,953.0900
2023-04-23T02:07:57.350Z,953.0700
2023-04-23T02:08:08.465Z,953.0700
2023-04-23T02:08:19.509Z,953.0700
2023-04-23T02:08:30.535Z,953.0700
2023-04-23T02:08:41.751Z,953.0700
2023-04-23T02:08:52.954Z,953.0700
2023-04-23T02:09:04.151Z,953.0700
2023-04-23T02:09:15.278Z,953.0700
2023-04-23T02:09:26.317Z,953.0500
2023-04-23T02:09:37.379Z,953.0500
2023-04-23T02:09:48.436Z,953.0500
2023-04-23T02:09:59.513Z,953.0500
2023-04-23T02:10:10.736Z,953.0500
2023-04-23T02:10:21.944Z,953.0500
2023-04-23T02:10:37.918Z,953.0500
2023-04-23T02:10:49.832Z,953.0700
2023-04-23T02:11:02.499Z,953.0700
2023-04-23T02:11:13.689Z,953.0700
2023-04-23T02:11:25.530Z,953.0700
2023-04-23T02:11:36.937Z,953.0700
2023-04-23T02:11:48.594Z,953.0700